sensor_id;sensor_type;location;lat;lon;timestamp;pressure;altitude;pressure_sealevel;temperature;humidity
13661;BME280;6903;49.480;11.102;2023-05-02T00:01:05;97916.13;;;7.79;100.00
13661;BME280;6903;49.480;11.102;2023-05-02T00:03:31;97912.97;;;7.74;100.00
13661;BME280;6903;49.480;11.102;2023-05-02T00:05:57;97913.19;;;7.71;100.00
13661;BME280;6903;49.480;11.102;2023-05-02T00:08:22;97916.84;;;7.69;100.00
13661;BME280;6903;49.480;11.102;2023-05-02T00:10:47;97913.56;;;7.65;100.00
13661;BME280;6903;49.480;11.102;2023-05-02T00:13:13;97915.38;;;7.65;100.00
13661;BME280;6903;49.480;11.102;2023-05-02T00:15:38;97906.66;;;7.64;100.00
13661;BME280;6903;49.480;11.102;2023-05-02T00:18:03;97903.28;;;7.62;100.00
13661;BME280;6903;49.480;11.102;2023-05-02T00:20:29;97902.66;;;7.59;100.00
13661;BME280;6903;49.480;11.102;2023-05-02T00:22:55;97906.97;;;7.60;100.00
13661;BME280;6903;49.480;11.102;2023-05-02T00:25:21;97906.22;;;7.58;100.00
13661;BME280;6903;49.480;11.102;2023-05-02T00:27:46;97907.41;;;7.54;100.00
13661;BME280;6903;49.480;11.102;2023-05-02T00:30:13;97905.59;;;7.54;100.00
13661;BME280;6903;49.480;11.102;2023-05-02T00:32:38;97905.59;;;7.54;100.00
13661;BME280;6903;49.480;11.102;2023-05-02T00:35:04;97903.81;;;7.55;100.00
13661;BME280;6903;49.480;11.102;2023-05-02T00:37:30;97903.09;;;7.53;100.00
13661;BME280;6903;49.480;11.102;2023-05-02T00:39:55;97907.41;;;7.54;100.00
13661;BME280;6903;49.480;11.102;2023-05-02T00:42:21;97907.41;;;7.54;100.00
13661;BME280;6903;49.480;11.102;2023-05-02T00:44:46;97904.78;;;7.54;100.00
13661;BME280;6903;49.480;11.102;2023-05-02T00:47:13;97899.53;;;7.54;100.00
13661;BME280;6903;49.480;11.102;2023-05-02T00:49:38;97898.78;;;7.52;100.00
13661;BME280;6903;49.480;11.102;2023-05-02T00:52:04;97893.88;;;7.47;100.00
13661;BME280;6903;49.480;11.102;2023-05-02T00:54:30;97902.03;;;7.43;100.00
13661;BME280;6903;49.480;11.102;2023-05-02T00:56:55;97900.66;;;7.37;100.00
13661;BME280;6903;49.480;11.102;2023-05-02T00:59:20;97903.81;;;7.30;100.00
13661;BME280;6903;49.480;11.102;2023-05-02T01:02:10;97912.91;;;7.24;100.00
13661;BME280;6903;49.480;11.102;2023-05-02T01:10:00;97916.41;;;7.25;100.00
13661;BME280;6903;49.480;11.102;2023-05-02T01:12:38;97924.47;;;7.22;100.00
13661;BME280;6903;49.480;11.102;2023-05-02T01:15:08;97916.06;;;7.16;100.00
13661;BME280;6903;49.480;11.102;2023-05-02T01:17:35;97918.91;;;7.13;100.00
13661;BME280;6903;49.480;11.102;2023-05-02T01:20:08;97925.50;;;7.19;100.00
13661;BME280;6903;49.480;11.102;2023-05-02T01:22:37;97925.50;;;7.19;100.00
13661;BME280;6903;49.480;11.102;2023-05-02T01:30:53;97930.97;;;7.29;100.00
13661;BME280;6903;49.480;11.102;2023-05-02T01:33:21;97929.09;;;7.31;100.00
13661;BME280;6903;49.480;11.102;2023-05-02T01:35:50;97932.66;;;7.30;100.00
13661;BME280;6903;49.480;11.102;2023-05-02T01:38:17;97927.50;;;7.28;100.00
13661;BME280;6903;49.480;11.102;2023-05-02T01:40:46;97923.50;;;7.22;100.00
13661;BME280;6903;49.480;11.102;2023-05-02T01:43:15;97921.75;;;7.23;100.00
13661;BME280;6903;49.480;11.102;2023-05-02T01:45:44;97922.03;;;7.18;100.00
13661;BME280;6903;49.480;11.102;2023-05-02T01:48:12;97926.56;;;7.16;100.00
13661;BME280;6903;49.480;11.102;2023-05-02T01:50:40;97926.66;;;7.15;100.00
13661;BME280;6903;49.480;11.102;2023-05-02T01:53:08;97929.28;;;7.15;100.00
13661;BME280;6903;49.480;11.102;2023-05-02T01:55:38;97924.84;;;7.15;100.00
13661;BME280;6903;49.480;11.102;2023-05-02T01:58:05;97929.44;;;7.12;100.00
13661;BME280;6903;49.480;11.102;2023-05-02T02:00:31;97930.41;;;7.11;100.00
13661;BME280;6903;49.480;11.102;2023-05-02T02:02:58;97936.69;;;7.08;100.00
13661;BME280;6903;49.480;11.102;2023-05-02T02:05:24;97929.75;;;7.07;100.00
13661;BME280;6903;49.480;11.102;2023-05-02T02:07:51;97931.75;;;7.04;100.00
13661;BME280;6903;49.480;11.102;2023-05-02T02:10:16;97931.75;;;7.04;100.00
13661;BME280;6903;49.480;11.102;2023-05-02T02:12:52;97936.25;;;7.02;100.00
13661;BME280;6903;49.480;11.102;2023-05-02T02:17:58;97938.53;;;6.94;100.00
13661;BME280;6903;49.480;11.102;2023-05-02T02:20:25;97943.25;;;6.89;100.00
13661;BME280;6903;49.480;11.102;2023-05-02T02:22:52;97937.56;;;6.82;100.00
13661;BME280;6903;49.480;11.102;2023-05-02T02:25:18;97935.84;;;6.81;100.00
13661;BME280;6903;49.480;11.102;2023-05-02T02:27:44;97942.59;;;6.85;100.00
13661;BME280;6903;49.480;11.102;2023-05-02T02:30:11;97946.16;;;6.84;100.00
13661;BME280;6903;49.480;11.102;2023-05-02T02:32:36;97947.84;;;6.85;100.00
13661;BME280;6903;49.480;11.102;2023-05-02T02:35:02;97947.19;;;6.82;100.00
13661;BME280;6903;49.480;11.102;2023-05-02T02:37:44;97961.44;;;6.78;100.00
13661;BME280;6903;49.480;11.102;2023-05-02T02:40:21;97964.16;;;6.76;100.00
13661;BME280;6903;49.480;11.102;2023-05-02T02:43:11;97964.25;;;6.75;100.00
13661;BME280;6903;49.480;11.102;2023-05-02T02:46:01;97958.38;;;6.71;100.00
13661;BME280;6903;49.480;11.102;2023-05-02T02:48:37;97962.88;;;6.69;100.00
13661;BME280;6903;49.480;11.102;2023-05-02T02:51:29;97973.09;;;6.60;100.00
13661;BME280;6903;49.480;11.102;2023-05-02T02:54:10;97974.59;;;6.50;100.00
13661;BME280;6903;49.480;11.102;2023-05-02T02:56:41;97972.19;;;6.47;100.00
13661;BME280;6903;49.480;11.102;2023-05-02T02:59:31;97973.28;;;6.43;100.00
13661;BME280;6903;49.480;11.102;2023-05-02T03:02:06;97983.13;;;6.39;100.00
13661;BME280;6903;49.480;11.102;2023-05-02T03:04:37;97988.53;;;6.36;100.00
13661;BME280;6903;49.480;11.102;2023-05-02T03:07:04;97992.97;;;6.36;100.00
13661;BME280;6903;49.480;11.102;2023-05-02T03:09:40;97984.16;;;6.37;100.00
13661;BME280;6903;49.480;11.102;2023-05-02T03:12:05;97992.84;;;6.37;100.00
13661;BME280;6903;49.480;11.102;2023-05-02T03:14:31;97994.44;;;6.40;100.00
13661;BME280;6903;49.480;11.102;2023-05-02T03:16:56;98005.84;;;6.39;100.00
13661;BME280;6903;49.480;11.102;2023-05-02T03:19:21;98000.91;;;6.34;100.00
13661;BME280;6903;49.480;11.102;2023-05-02T03:21:47;98002.69;;;6.34;100.00
13661;BME280;6903;49.480;11.102;2023-05-02T03:24:12;98008.19;;;6.29;100.00
13661;BME280;6903;49.480;11.102;2023-05-02T03:26:39;98013.72;;;6.25;100.00
13661;BME280;6903;49.480;11.102;2023-05-02T03:29:04;98008.03;;;6.18;100.00
13661;BME280;6903;49.480;11.102;2023-05-02T03:31:29;98019.50;;;6.16;100.00
13661;BME280;6903;49.480;11.102;2023-05-02T03:33:55;98017.84;;;6.15;100.00
13661;BME280;6903;49.480;11.102;2023-05-02T03:36:20;98017.06;;;6.13;100.00
13661;BME280;6903;49.480;11.102;2023-05-02T03:38:46;98013.59;;;6.12;100.00
13661;BME280;6903;49.480;11.102;2023-05-02T03:41:11;98014.16;;;6.17;100.00
13661;BME280;6903;49.480;11.102;2023-05-02T03:43:36;98012.88;;;6.24;100.00
13661;BME280;6903;49.480;11.102;2023-05-02T03:46:06;98017.16;;;6.25;100.00
13661;BME280;6903;49.480;11.102;2023-05-02T03:48:33;98017.81;;;6.29;100.00
13661;BME280;6903;49.480;11.102;2023-05-02T03:50:58;98013.81;;;6.37;100.00
13661;BME280;6903;49.480;11.102;2023-05-02T03:53:24;98018.75;;;6.42;100.00
13661;BME280;6903;49.480;11.102;2023-05-02T03:55:49;98019.22;;;6.48;100.00
13661;BME280;6903;49.480;11.102;2023-05-02T03:58:14;98023.25;;;6.54;100.00
13661;BME280;6903;49.480;11.102;2023-05-02T04:00:40;98015.66;;;6.63;100.00
13661;BME280;6903;49.480;11.102;2023-05-02T04:03:06;98017.97;;;6.68;100.00
13661;BME280;6903;49.480;11.102;2023-05-02T04:05:31;98029.84;;;6.73;100.00
13661;BME280;6903;49.480;11.102;2023-05-02T04:07:57;98038.16;;;6.80;100.00
13661;BME280;6903;49.480;11.102;2023-05-02T04:10:23;98035.88;;;6.88;100.00
13661;BME280;6903;49.480;11.102;2023-05-02T04:12:48;98045.16;;;6.93;100.00
13661;BME280;6903;49.480;11.102;2023-05-02T04:15:14;98046.47;;;7.00;100.00
13661;BME280;6903;49.480;11.102;2023-05-02T04:17:39;98048.78;;;7.05;100.00
13661;BME280;6903;49.480;11.102;2023-05-02T04:20:05;98060.63;;;7.10;100.00
13661;BME280;6903;49.480;11.102;2023-05-02T04:22:31;98047.16;;;7.16;100.00
13661;BME280;6903;49.480;11.102;2023-05-02T04:24:57;98058.09;;;7.23;100.00
13661;BME280;6903;49.480;11.102;2023-05-02T04:27:22;98061.19;;;7.30;100.00
13661;BME280;6903;49.480;11.102;2023-05-02T04:29:49;98058.03;;;7.37;100.00
13661;BME280;6903;49.480;11.102;2023-05-02T04:32:14;98061.09;;;7.44;100.00
13661;BME280;6903;49.480;11.102;2023-05-02T04:34:40;98067.53;;;7.52;100.00
13661;BME280;6903;49.480;11.102;2023-05-02T04:37:05;98072.50;;;7.57;100.00
13661;BME280;6903;49.480;11.102;2023-05-02T04:39:31;98081.25;;;7.70;100.00
13661;BME280;6903;49.480;11.102;2023-05-02T04:41:56;98076.31;;;7.78;100.00
13661;BME280;6903;49.480;11.102;2023-05-02T04:44:22;98083.47;;;7.88;100.00
13661;BME280;6903;49.480;11.102;2023-05-02T04:46:47;98083.91;;;7.95;100.00
13661;BME280;6903;49.480;11.102;2023-05-02T04:49:12;98096.13;;;8.08;100.00
13661;BME280;6903;49.480;11.102;2023-05-02T04:51:38;98088.56;;;8.16;100.00
13661;BME280;6903;49.480;11.102;2023-05-02T04:54:03;98095.75;;;8.27;100.00
13661;BME280;6903;49.480;11.102;2023-05-02T04:56:28;98093.31;;;8.36;100.00
13661;BME280;6903;49.480;11.102;2023-05-02T04:58:53;98104.16;;;8.44;100.00
13661;BME280;6903;49.480;11.102;2023-05-02T05:01:19;98097.44;;;8.53;100.00
13661;BME280;6903;49.480;11.102;2023-05-02T05:03:44;98103.75;;;8.63;100.00
13661;BME280;6903;49.480;11.102;2023-05-02T05:06:09;98107.38;;;8.73;100.00
13661;BME280;6903;49.480;11.102;2023-05-02T05:08:36;98105.81;;;8.83;100.00
13661;BME280;6903;49.480;11.102;2023-05-02T05:11:02;98111.69;;;8.87;100.00
13661;BME280;6903;49.480;11.102;2023-05-02T05:13:29;98106.84;;;8.93;100.00
13661;BME280;6903;49.480;11.102;2023-05-02T05:15:54;98115.66;;;9.05;100.00
13661;BME280;6903;49.480;11.102;2023-05-02T05:18:20;98114.78;;;9.17;100.00
13661;BME280;6903;49.480;11.102;2023-05-02T05:20:46;98120.56;;;9.22;100.00
13661;BME280;6903;49.480;11.102;2023-05-02T05:23:11;98122.34;;;9.34;100.00
13661;BME280;6903;49.480;11.102;2023-05-02T05:25:36;98130.28;;;9.45;100.00
13661;BME280;6903;49.480;11.102;2023-05-02T05:28:02;98123.25;;;9.45;100.00
13661;BME280;6903;49.480;11.102;2023-05-02T05:30:27;98130.28;;;9.45;100.00
13661;BME280;6903;49.480;11.102;2023-05-02T05:32:55;98131.44;;;9.53;100.00
13661;BME280;6903;49.480;11.102;2023-05-02T05:35:20;98130.25;;;9.57;100.00
13661;BME280;6903;49.480;11.102;2023-05-02T05:37:46;98134.66;;;9.57;100.00
13661;BME280;6903;49.480;11.102;2023-05-02T05:40:11;98137.28;;;9.57;100.00
13661;BME280;6903;49.480;11.102;2023-05-02T05:42:37;98134.84;;;9.66;100.00
13661;BME280;6903;49.480;11.102;2023-05-02T05:45:02;98139.78;;;9.71;100.00
13661;BME280;6903;49.480;11.102;2023-05-02T05:47:27;98135.03;;;9.76;100.00
13661;BME280;6903;49.480;11.102;2023-05-02T05:49:53;98141.09;;;9.76;100.00
13661;BME280;6903;49.480;11.102;2023-05-02T05:52:19;98144.13;;;9.83;100.00
13661;BME280;6903;49.480;11.102;2023-05-02T05:54:45;98144.41;;;9.91;100.00
13661;BME280;6903;49.480;11.102;2023-05-02T05:57:10;98141.44;;;9.95;100.00
13661;BME280;6903;49.480;11.102;2023-05-02T05:59:36;98145.41;;;10.01;100.00
13661;BME280;6903;49.480;11.102;2023-05-02T06:02:01;98148.91;;;10.01;100.00
13661;BME280;6903;49.480;11.102;2023-05-02T06:04:26;98142.16;;;9.97;100.00
13661;BME280;6903;49.480;11.102;2023-05-02T06:06:52;98152.47;;;10.00;100.00
13661;BME280;6903;49.480;11.102;2023-05-02T06:09:18;98152.34;;;10.02;100.00
13661;BME280;6903;49.480;11.102;2023-05-02T06:11:43;98156.69;;;10.03;100.00
13661;BME280;6903;49.480;11.102;2023-05-02T06:14:09;98164.72;;;10.01;100.00
13661;BME280;6903;49.480;11.102;2023-05-02T06:16:34;98165.84;;;10.10;100.00
13661;BME280;6903;49.480;11.102;2023-05-02T06:19:00;98168.97;;;10.15;100.00
13661;BME280;6903;49.480;11.102;2023-05-02T06:21:25;98171.06;;;10.23;100.00
13661;BME280;6903;49.480;11.102;2023-05-02T06:23:51;98175.00;;;10.28;100.00
13661;BME280;6903;49.480;11.102;2023-05-02T06:26:16;98181.41;;;10.37;100.00
13661;BME280;6903;49.480;11.102;2023-05-02T06:28:42;98185.59;;;10.39;100.00
13661;BME280;6903;49.480;11.102;2023-05-02T06:31:08;98192.22;;;10.45;100.00
13661;BME280;6903;49.480;11.102;2023-05-02T06:33:33;98198.72;;;10.52;100.00
13661;BME280;6903;49.480;11.102;2023-05-02T06:35:59;98199.78;;;10.60;100.00
13661;BME280;6903;49.480;11.102;2023-05-02T06:38:25;98204.94;;;10.62;100.00
13661;BME280;6903;49.480;11.102;2023-05-02T06:40:50;98215.63;;;10.71;100.00
13661;BME280;6903;49.480;11.102;2023-05-02T06:43:16;98212.44;;;10.79;100.00
13661;BME280;6903;49.480;11.102;2023-05-02T06:45:42;98212.09;;;10.83;100.00
13661;BME280;6903;49.480;11.102;2023-05-02T06:48:08;98216.03;;;10.89;100.00
13661;BME280;6903;49.480;11.102;2023-05-02T06:50:33;98222.28;;;10.88;100.00
13661;BME280;6903;49.480;11.102;2023-05-02T06:52:59;98222.66;;;10.94;100.00
13661;BME280;6903;49.480;11.102;2023-05-02T06:55:24;98226.88;;;10.97;100.00
13661;BME280;6903;49.480;11.102;2023-05-02T06:57:50;98229.75;;;11.05;100.00
13661;BME280;6903;49.480;11.102;2023-05-02T07:00:16;98233.47;;;11.13;100.00
13661;BME280;6903;49.480;11.102;2023-05-02T07:02:43;98236.00;;;11.26;100.00
13661;BME280;6903;49.480;11.102;2023-05-02T07:05:08;98236.59;;;11.40;100.00
13661;BME280;6903;49.480;11.102;2023-05-02T07:07:34;98237.56;;;11.51;100.00
13661;BME280;6903;49.480;11.102;2023-05-02T07:09:59;98246.31;;;11.62;100.00
13661;BME280;6903;49.480;11.102;2023-05-02T07:12:25;98247.31;;;11.72;100.00
13661;BME280;6903;49.480;11.102;2023-05-02T07:14:50;98251.00;;;11.81;100.00
13661;BME280;6903;49.480;11.102;2023-05-02T07:17:16;98252.69;;;11.93;100.00
13661;BME280;6903;49.480;11.102;2023-05-02T07:19:41;98256.88;;;12.06;100.00
13661;BME280;6903;49.480;11.102;2023-05-02T07:22:06;98254.91;;;12.19;100.00
13661;BME280;6903;49.480;11.102;2023-05-02T07:24:32;98256.56;;;12.31;100.00
13661;BME280;6903;49.480;11.102;2023-05-02T07:26:57;98248.69;;;12.41;100.00
13661;BME280;6903;49.480;11.102;2023-05-02T07:29:22;98264.66;;;12.50;100.00
13661;BME280;6903;49.480;11.102;2023-05-02T07:31:48;98259.91;;;12.65;100.00
13661;BME280;6903;49.480;11.102;2023-05-02T07:34:13;98258.44;;;12.72;100.00
13661;BME280;6903;49.480;11.102;2023-05-02T07:36:39;98260.19;;;12.82;100.00
13661;BME280;6903;49.480;11.102;2023-05-02T07:39:04;98268.72;;;12.86;100.00
13661;BME280;6903;49.480;11.102;2023-05-02T07:41:29;98267.91;;;12.95;100.00
13661;BME280;6903;49.480;11.102;2023-05-02T07:43:55;98265.28;;;12.95;100.00
13661;BME280;6903;49.480;11.102;2023-05-02T07:46:22;98271.50;;;13.05;100.00
13661;BME280;6903;49.480;11.102;2023-05-02T07:48:47;98279.09;;;12.99;100.00
13661;BME280;6903;49.480;11.102;2023-05-02T07:51:12;98282.22;;;13.04;100.00
13661;BME280;6903;49.480;11.102;2023-05-02T07:53:38;98289.53;;;13.11;100.00
13661;BME280;6903;49.480;11.102;2023-05-02T07:56:03;98281.97;;;13.07;100.00
13661;BME280;6903;49.480;11.102;2023-05-02T07:58:31;98287.41;;;13.05;100.00
13661;BME280;6903;49.480;11.102;2023-05-02T08:00:56;98286.59;;;12.94;100.00
13661;BME280;6903;49.480;11.102;2023-05-02T08:03:21;98294.31;;;12.85;100.00
13661;BME280;6903;49.480;11.102;2023-05-02T08:05:47;98298.66;;;12.66;100.00
13661;BME280;6903;49.480;11.102;2023-05-02T08:08:12;98303.50;;;12.39;100.00
13661;BME280;6903;49.480;11.102;2023-05-02T08:10:37;98307.53;;;12.22;100.00
13661;BME280;6903;49.480;11.102;2023-05-02T08:13:02;98312.63;;;12.14;100.00
13661;BME280;6903;49.480;11.102;2023-05-02T08:15:28;98316.44;;;12.10;100.00
13661;BME280;6903;49.480;11.102;2023-05-02T08:17:54;98319.22;;;12.09;100.00
13661;BME280;6903;49.480;11.102;2023-05-02T08:20:19;98311.03;;;12.12;100.00
13661;BME280;6903;49.480;11.102;2023-05-02T08:22:46;98312.00;;;12.11;100.00
13661;BME280;6903;49.480;11.102;2023-05-02T08:25:11;98320.88;;;12.10;100.00
13661;BME280;6903;49.480;11.102;2023-05-02T08:27:36;98323.63;;;12.19;100.00
13661;BME280;6903;49.480;11.102;2023-05-02T08:30:02;98323.13;;;12.36;100.00
13661;BME280;6903;49.480;11.102;2023-05-02T08:32:27;98320.41;;;12.58;100.00
13661;BME280;6903;49.480;11.102;2023-05-02T08:34:54;98312.09;;;12.63;100.00
13661;BME280;6903;49.480;11.102;2023-05-02T08:37:23;98313.28;;;12.70;100.00
13661;BME280;6903;49.480;11.102;2023-05-02T08:39:48;98319.63;;;12.78;100.00
13661;BME280;6903;49.480;11.102;2023-05-02T08:42:13;98318.13;;;12.85;100.00
13661;BME280;6903;49.480;11.102;2023-05-02T08:44:39;98320.88;;;13.06;100.00
13661;BME280;6903;49.480;11.102;2023-05-02T08:47:04;98326.88;;;13.29;100.00
13661;BME280;6903;49.480;11.102;2023-05-02T08:49:31;98330.91;;;13.53;100.00
13661;BME280;6903;49.480;11.102;2023-05-02T08:51:58;98332.03;;;13.81;100.00
13661;BME280;6903;49.480;11.102;2023-05-02T08:54:24;98323.88;;;14.03;100.00
13661;BME280;6903;49.480;11.102;2023-05-02T08:56:52;98329.84;;;14.26;100.00
13661;BME280;6903;49.480;11.102;2023-05-02T08:59:18;98332.16;;;14.49;100.00
13661;BME280;6903;49.480;11.102;2023-05-02T09:01:44;98333.31;;;14.66;100.00
13661;BME280;6903;49.480;11.102;2023-05-02T09:04:13;98336.28;;;15.01;100.00
13661;BME280;6903;49.480;11.102;2023-05-02T09:06:39;98331.34;;;15.25;100.00
13661;BME280;6903;49.480;11.102;2023-05-02T09:09:04;98338.78;;;15.40;100.00
13661;BME280;6903;49.480;11.102;2023-05-02T09:11:29;98343.66;;;15.45;100.00
13661;BME280;6903;49.480;11.102;2023-05-02T09:13:55;98339.47;;;15.23;100.00
13661;BME280;6903;49.480;11.102;2023-05-02T09:16:24;98340.41;;;15.32;100.00
13661;BME280;6903;49.480;11.102;2023-05-02T09:18:53;98352.13;;;15.68;100.00
13661;BME280;6903;49.480;11.102;2023-05-02T09:21:20;98348.34;;;16.16;100.00
13661;BME280;6903;49.480;11.102;2023-05-02T09:23:48;98345.75;;;16.78;100.00
13661;BME280;6903;49.480;11.102;2023-05-02T09:28:46;98349.13;;;17.76;100.00
13661;BME280;6903;49.480;11.102;2023-05-02T09:31:17;98342.56;;;17.96;100.00
13661;BME280;6903;49.480;11.102;2023-05-02T09:33:43;98347.63;;;18.07;100.00
13661;BME280;6903;49.480;11.102;2023-05-02T09:36:17;98344.56;;;17.94;100.00
13661;BME280;6903;49.480;11.102;2023-05-02T09:38:44;98347.81;;;18.40;100.00
13661;BME280;6903;49.480;11.102;2023-05-02T09:41:10;98341.44;;;18.74;100.00
13661;BME280;6903;49.480;11.102;2023-05-02T09:43:36;98336.50;;;19.11;100.00
13661;BME280;6903;49.480;11.102;2023-05-02T09:46:06;98331.50;;;19.64;100.00
13661;BME280;6903;49.480;11.102;2023-05-02T09:48:50;98335.63;;;19.91;100.00
13661;BME280;6903;49.480;11.102;2023-05-02T09:51:16;98337.00;;;19.79;100.00
13661;BME280;6903;49.480;11.102;2023-05-02T09:53:42;98338.31;;;19.83;100.00
13661;BME280;6903;49.480;11.102;2023-05-02T09:56:08;98337.06;;;20.64;100.00
13661;BME280;6903;49.480;11.102;2023-05-02T09:58:33;98341.72;;;21.24;100.00
13661;BME280;6903;49.480;11.102;2023-05-02T10:00:58;98347.84;;;21.55;100.00
13661;BME280;6903;49.480;11.102;2023-05-02T10:03:25;98351.34;;;21.41;100.00
13661;BME280;6903;49.480;11.102;2023-05-02T10:05:51;98354.28;;;21.46;100.00
13661;BME280;6903;49.480;11.102;2023-05-02T10:08:19;98344.75;;;21.43;100.00
13661;BME280;6903;49.480;11.102;2023-05-02T10:10:49;98347.00;;;21.54;100.00
13661;BME280;6903;49.480;11.102;2023-05-02T10:13:19;98353.59;;;21.52;100.00
13661;BME280;6903;49.480;11.102;2023-05-02T10:15:49;98358.34;;;21.64;100.00
13661;BME280;6903;49.480;11.102;2023-05-02T10:18:20;98349.81;;;21.61;95.72
13661;BME280;6903;49.480;11.102;2023-05-02T10:20:53;98355.53;;;21.58;100.00
13661;BME280;6903;49.480;11.102;2023-05-02T10:23:20;98353.06;;;21.71;98.00
13661;BME280;6903;49.480;11.102;2023-05-02T10:25:46;98351.47;;;21.99;93.32
13661;BME280;6903;49.480;11.102;2023-05-02T10:28:13;98356.41;;;22.24;96.10
13661;BME280;6903;49.480;11.102;2023-05-02T10:30:39;98344.44;;;22.71;91.34
13661;BME280;6903;49.480;11.102;2023-05-02T10:33:05;98357.25;;;22.54;85.26
13661;BME280;6903;49.480;11.102;2023-05-02T10:35:31;98348.53;;;23.02;86.93
13661;BME280;6903;49.480;11.102;2023-05-02T10:37:57;98339.59;;;23.16;82.64
13661;BME280;6903;49.480;11.102;2023-05-02T10:40:24;98337.22;;;22.92;79.99
13661;BME280;6903;49.480;11.102;2023-05-02T10:42:50;98330.09;;;22.99;84.51
13661;BME280;6903;49.480;11.102;2023-05-02T10:48:16;98320.88;;;24.33;72.59
13661;BME280;6903;49.480;11.102;2023-05-02T10:50:50;98315.31;;;24.82;70.35
13661;BME280;6903;49.480;11.102;2023-05-02T10:53:31;98313.53;;;25.28;66.34
13661;BME280;6903;49.480;11.102;2023-05-02T10:56:17;98315.19;;;25.16;65.56
13661;BME280;6903;49.480;11.102;2023-05-02T10:58:44;98311.72;;;25.74;64.13
13661;BME280;6903;49.480;11.102;2023-05-02T11:04:00;98312.56;;;25.55;61.07
13661;BME280;6903;49.480;11.102;2023-05-02T11:06:28;98313.75;;;25.33;56.54
13661;BME280;6903;49.480;11.102;2023-05-02T11:11:42;98308.19;;;25.35;54.26
13661;BME280;6903;49.480;11.102;2023-05-02T11:20:18;98296.09;;;24.57;57.24
13661;BME280;6903;49.480;11.102;2023-05-02T11:24:45;98290.81;;;24.77;55.64
13661;BME280;6903;49.480;11.102;2023-05-02T11:30:05;98289.84;;;24.50;56.99
13661;BME280;6903;49.480;11.102;2023-05-02T11:35:20;98295.31;;;25.56;55.19
13661;BME280;6903;49.480;11.102;2023-05-02T11:38:13;98291.31;;;26.17;53.05
13661;BME280;6903;49.480;11.102;2023-05-02T11:40:39;98295.22;;;26.28;49.52
13661;BME280;6903;49.480;11.102;2023-05-02T11:43:16;98289.41;;;26.24;48.35
13661;BME280;6903;49.480;11.102;2023-05-02T11:45:42;98291.16;;;26.57;47.91
13661;BME280;6903;49.480;11.102;2023-05-02T11:48:08;98291.03;;;26.89;47.16
13661;BME280;6903;49.480;11.102;2023-05-02T11:50:42;98285.31;;;27.10;47.52
13661;BME280;6903;49.480;11.102;2023-05-02T11:53:12;98291.66;;;26.34;44.78
13661;BME280;6903;49.480;11.102;2023-05-02T11:55:43;98283.91;;;24.68;47.33
13661;BME280;6903;49.480;11.102;2023-05-02T11:58:13;98297.16;;;23.60;50.68
13661;BME280;6903;49.480;11.102;2023-05-02T12:00:39;98290.66;;;23.27;51.34
13661;BME280;6903;49.480;11.102;2023-05-02T12:03:05;98288.09;;;23.40;53.00
13661;BME280;6903;49.480;11.102;2023-05-02T12:05:31;98293.88;;;23.65;53.27
13661;BME280;6903;49.480;11.102;2023-05-02T12:07:56;98295.44;;;23.81;52.73
13661;BME280;6903;49.480;11.102;2023-05-02T12:10:22;98303.31;;;23.54;52.67
13661;BME280;6903;49.480;11.102;2023-05-02T12:12:47;98297.72;;;22.93;55.90
13661;BME280;6903;49.480;11.102;2023-05-02T12:15:13;98309.66;;;22.84;59.03
13661;BME280;6903;49.480;11.102;2023-05-02T12:17:41;98305.34;;;22.54;61.80
13661;BME280;6903;49.480;11.102;2023-05-02T12:20:08;98312.13;;;22.06;62.79
13661;BME280;6903;49.480;11.102;2023-05-02T12:22:34;98307.88;;;22.11;62.12
13661;BME280;6903;49.480;11.102;2023-05-02T12:25:00;98314.53;;;22.01;60.29
13661;BME280;6903;49.480;11.102;2023-05-02T12:27:27;98318.91;;;22.02;61.30
13661;BME280;6903;49.480;11.102;2023-05-02T12:29:53;98313.88;;;21.99;60.95
13661;BME280;6903;49.480;11.102;2023-05-02T12:32:32;98325.09;;;22.02;57.01
13661;BME280;6903;49.480;11.102;2023-05-02T12:34:59;98323.44;;;22.30;55.56
13661;BME280;6903;49.480;11.102;2023-05-02T12:37:25;98311.94;;;22.36;53.08
13661;BME280;6903;49.480;11.102;2023-05-02T12:39:51;98323.69;;;22.50;51.52
13661;BME280;6903;49.480;11.102;2023-05-02T12:42:19;98333.69;;;22.41;52.02
13661;BME280;6903;49.480;11.102;2023-05-02T12:44:46;98337.06;;;22.29;52.49
13661;BME280;6903;49.480;11.102;2023-05-02T12:47:13;98341.69;;;22.35;53.41
13661;BME280;6903;49.480;11.102;2023-05-02T12:49:48;98349.44;;;22.44;52.76
13661;BME280;6903;49.480;11.102;2023-05-02T12:52:15;98357.03;;;22.26;52.32
13661;BME280;6903;49.480;11.102;2023-05-02T12:54:40;98362.59;;;22.10;53.11
13661;BME280;6903;49.480;11.102;2023-05-02T12:57:06;98368.34;;;21.70;55.06
13661;BME280;6903;49.480;11.102;2023-05-02T12:59:32;98365.75;;;21.40;57.69
13661;BME280;6903;49.480;11.102;2023-05-02T13:02:00;98369.63;;;20.84;60.78
13661;BME280;6903;49.480;11.102;2023-05-02T13:04:33;98373.22;;;20.22;64.16
13661;BME280;6903;49.480;11.102;2023-05-02T13:06:58;98378.94;;;19.95;66.63
13661;BME280;6903;49.480;11.102;2023-05-02T13:09:23;98383.66;;;19.52;68.78
13661;BME280;6903;49.480;11.102;2023-05-02T13:11:49;98393.19;;;19.39;70.30
13661;BME280;6903;49.480;11.102;2023-05-02T13:14:15;98391.50;;;19.38;70.75
13661;BME280;6903;49.480;11.102;2023-05-02T13:16:40;98389.00;;;19.60;70.60
13661;BME280;6903;49.480;11.102;2023-05-02T13:19:05;98395.88;;;19.47;67.83
13661;BME280;6903;49.480;11.102;2023-05-02T13:21:31;98391.50;;;19.38;69.84
13661;BME280;6903;49.480;11.102;2023-05-02T13:23:56;98397.38;;;19.41;68.53
13661;BME280;6903;49.480;11.102;2023-05-02T13:26:22;98395.13;;;19.13;70.44
13661;BME280;6903;49.480;11.102;2023-05-02T13:28:48;98393.75;;;19.01;71.27
13661;BME280;6903;49.480;11.102;2023-05-02T13:31:13;98387.41;;;18.94;72.43
13661;BME280;6903;49.480;11.102;2023-05-02T13:33:38;98395.22;;;18.79;72.95
13661;BME280;6903;49.480;11.102;2023-05-02T13:36:04;98397.63;;;18.57;75.06